Time;durP1;ratioP1;P1;durP2;ratioP2;P2;SDS_P1;SDS_P2;PMS_P1;PMS_P2;Temp;Humidity;BMP_temperature;BMP_pressure;BME280_temperature;BME280_humidity;BME280_pressure;Samples;Min_cycle;Max_cycle;Signal;HPM_P1;HPM_P2
2023/12/13 00:02:38;;;;;;;11.07;4.70;;;;;;;;;;6190342;28;20034;-85
2023/12/13 00:05:40;;;;;;;11.77;4.72;;;;;;;;;;6173255;28;20050;-85
2023/12/13 00:08:42;;;;;;;9.30;4.75;;;;;;;;;;6198516;28;20050;-85
2023/12/13 00:11:44;;;;;;;8.82;4.40;;;;;;;;;;6157310;28;20046;-85
2023/12/13 00:14:45;;;;;;;10.27;4.88;;;;;;;;;;6171727;28;20050;-85
2023/12/13 00:17:47;;;;;;;10.15;4.35;;;;;;;;;;6151317;28;20057;-85
2023/12/13 00:20:49;;;;;;;11.93;5.05;;;;;;;;;;6156997;28;20038;-85
2023/12/13 00:23:51;;;;;;;12.73;5.57;;;;;;;;;;6191749;28;20078;-85
2023/12/13 00:26:53;;;;;;;9.85;5.35;;;;;;;;;;6191910;28;20065;-85
2023/12/13 00:29:55;;;;;;;12.40;4.97;;;;;;;;;;6175280;28;20046;-85
2023/12/13 00:32:57;;;;;;;10.35;4.80;;;;;;;;;;6211143;28;20047;-84
2023/12/13 00:35:59;;;;;;;9.77;4.70;;;;;;;;;;6198342;28;20058;-85
2023/12/13 00:39:01;;;;;;;9.20;4.38;;;;;;;;;;6187602;28;20061;-84
2023/12/13 00:42:03;;;;;;;9.23;5.10;;;;;;;;;;6190919;28;20097;-85
2023/12/13 00:45:06;;;;;;;9.48;4.72;;;;;;;;;;6203250;28;20038;-84
2023/12/13 00:48:08;;;;;;;10.20;5.13;;;;;;;;;;6205259;28;20035;-85
2023/12/13 00:51:16;;;;;;;7.90;4.32;;;;;;;;;;6192311;28;20031;-84
2023/12/13 00:54:18;;;;;;;11.75;4.72;;;;;;;;;;6201518;28;20054;-84
2023/12/13 00:57:20;;;;;;;8.30;4.43;;;;;;;;;;6176711;28;20042;-85
2023/12/13 01:00:22;;;;;;;9.85;4.65;;;;;;;;;;6178638;28;20050;-85
2023/12/13 01:03:23;;;;;;;7.93;4.28;;;;;;;;;;6188280;28;20113;-86
2023/12/13 01:06:25;;;;;;;9.95;4.18;;;;;;;;;;6176285;28;20053;-88
2023/12/13 01:09:28;;;;;;;8.32;4.20;;;;;;;;;;6192416;28;20282;-87
2023/12/13 01:12:29;;;;;;;6.28;3.92;;;;;;;;;;6208334;28;20045;-86
2023/12/13 01:15:31;;;;;;;7.80;3.92;;;;;;;;;;6172562;28;20050;-87
2023/12/13 01:18:33;;;;;;;8.35;3.60;;;;;;;;;;6183148;28;20105;-86
2023/12/13 01:21:35;;;;;;;6.35;2.97;;;;;;;;;;6175835;28;20046;-87
2023/12/13 01:24:37;;;;;;;7.63;2.78;;;;;;;;;;6190871;28;20054;-88
2023/12/13 01:27:39;;;;;;;4.82;2.70;;;;;;;;;;6180524;28;20092;-86
2023/12/13 01:30:40;;;;;;;7.13;3.13;;;;;;;;;;6190437;28;20046;-88
2023/12/13 01:33:42;;;;;;;7.32;3.67;;;;;;;;;;6205912;28;20045;-86
2023/12/13 01:36:44;;;;;;;7.30;3.55;;;;;;;;;;6190977;28;20030;-87
2023/12/13 01:39:46;;;;;;;10.25;3.60;;;;;;;;;;6178243;28;20041;-87
2023/12/13 01:42:48;;;;;;;6.43;3.15;;;;;;;;;;6173774;28;20042;-85
2023/12/13 01:45:55;;;;;;;6.38;3.20;;;;;;;;;;6175187;28;20042;-85
2023/12/13 01:48:57;;;;;;;5.95;2.47;;;;;;;;;;6143644;28;20050;-85
2023/12/13 01:51:59;;;;;;;5.70;2.50;;;;;;;;;;6158378;28;20058;-85
2023/12/13 01:55:02;;;;;;;4.85;2.10;;;;;;;;;;6162263;28;20128;-85
2023/12/13 01:58:04;;;;;;;7.32;2.28;;;;;;;;;;6181110;28;20141;-85
2023/12/13 02:01:08;;;;;;;7.22;2.70;;;;;;;;;;6161982;28;20057;-86
2023/12/13 02:04:17;;;;;;;4.45;2.00;;;;;;;;;;6142619;28;20050;-86
2023/12/13 02:07:18;;;;;;;;;;;;;;;;;;6153609;28;20082;-85
2023/12/13 02:10:20;;;;;;;6.05;2.40;;;;;;;;;;6172184;28;20049;-86
2023/12/13 02:13:22;;;;;;;4.28;1.83;;;;;;;;;;6159382;28;20046;-86
2023/12/13 02:16:26;;;;;;;4.78;2.25;;;;;;;;;;6176584;28;20047;-88
2023/12/13 02:19:28;;;;;;;4.65;2.38;;;;;;;;;;6149429;28;20042;-86
2023/12/13 02:22:30;;;;;;;4.63;1.90;;;;;;;;;;6152369;28;20428;-86
2023/12/13 02:25:47;;;;;;;5.20;2.42;;;;;;;;;;6164739;28;20451;-85
2023/12/13 02:28:50;;;;;;;8.85;2.67;;;;;;;;;;6141780;28;20394;-86
2023/12/13 02:31:52;;;;;;;3.20;2.17;;;;;;;;;;6154028;28;20046;-86
2023/12/13 02:34:54;;;;;;;8.90;2.90;;;;;;;;;;6158747;28;20448;-86
2023/12/13 02:37:56;;;;;;;5.90;3.00;;;;;;;;;;6160252;28;20057;-86
2023/12/13 02:40:58;;;;;;;8.07;3.35;;;;;;;;;;6183726;28;20054;-86
2023/12/13 02:44:00;;;;;;;10.98;3.63;;;;;;;;;;6181613;28;20050;-85
2023/12/13 02:47:02;;;;;;;6.15;3.35;;;;;;;;;;6169129;28;20061;-86
2023/12/13 02:50:06;;;;;;;10.23;3.50;;;;;;;;;;6179432;28;20038;-86
2023/12/13 02:53:08;;;;;;;6.43;3.35;;;;;;;;;;6152723;28;20046;-87
2023/12/13 02:56:10;;;;;;;7.63;2.95;;;;;;;;;;6166224;28;20053;-86
2023/12/13 02:59:11;;;;;;;7.40;2.95;;;;;;;;;;6163201;28;20055;-86
2023/12/13 03:02:13;;;;;;;7.85;2.83;;;;;;;;;;6182690;28;20045;-86
2023/12/13 03:05:15;;;;;;;7.22;3.05;;;;;;;;;;6182967;28;20046;-85
2023/12/13 03:08:17;;;;;;;6.82;2.92;;;;;;;;;;6149495;28;20551;-85
2023/12/13 03:11:20;;;;;;;6.50;3.08;;;;;;;;;;6185941;28;20050;-84
2023/12/13 03:14:25;;;;;;;7.15;3.53;;;;;;;;;;6165846;28;20050;-84
2023/12/13 03:17:26;;;;;;;5.00;2.60;;;;;;;;;;6166314;28;20046;-84
2023/12/13 03:20:30;;;;;;;10.77;3.58;;;;;;;;;;6168840;28;20508;-85
2023/12/13 03:23:32;;;;;;;4.78;2.55;;;;;;;;;;6185438;28;20046;-85
2023/12/13 03:26:34;;;;;;;7.20;2.80;;;;;;;;;;6190202;28;20155;-85
2023/12/13 03:29:36;;;;;;;7.18;3.40;;;;;;;;;;6170179;28;20128;-84
2023/12/13 03:32:38;;;;;;;7.25;3.17;;;;;;;;;;6169775;28;20156;-85
2023/12/13 03:35:40;;;;;;;7.53;2.53;;;;;;;;;;6143798;28;20090;-85
2023/12/13 03:38:44;;;;;;;7.30;2.85;;;;;;;;;;6179249;28;20057;-86
2023/12/13 03:41:46;;;;;;;6.85;2.75;;;;;;;;;;6164956;28;20054;-86
2023/12/13 03:44:47;;;;;;;4.45;2.38;;;;;;;;;;6158308;28;20030;-86
2023/12/13 03:47:50;;;;;;;4.78;1.80;;;;;;;;;;6147750;28;20046;-86
2023/12/13 03:50:52;;;;;;;5.97;2.20;;;;;;;;;;6181593;28;20043;-86
2023/12/13 03:53:54;;;;;;;8.65;2.60;;;;;;;;;;6169539;28;21044;-86
2023/12/13 03:56:55;;;;;;;4.95;2.60;;;;;;;;;;6146876;28;20137;-86
2023/12/13 03:59:57;;;;;;;6.20;2.83;;;;;;;;;;6183184;28;20061;-86
2023/12/13 04:03:00;;;;;;;6.13;3.10;;;;;;;;;;6187155;28;20065;-83
2023/12/13 04:06:03;;;;;;;5.63;3.35;;;;;;;;;;6156041;28;20046;-84
2023/12/13 04:09:05;;;;;;;7.10;3.38;;;;;;;;;;6161900;28;20053;-84
2023/12/13 04:12:07;;;;;;;6.13;3.13;;;;;;;;;;6148326;28;20039;-85
2023/12/13 04:15:09;;;;;;;5.28;3.22;;;;;;;;;;6151541;28;20488;-86
2023/12/13 04:18:13;;;;;;;4.45;2.60;;;;;;;;;;6184778;28;20304;-84
2023/12/13 04:21:15;;;;;;;7.88;2.70;;;;;;;;;;6149642;28;20046;-84
2023/12/13 04:24:17;;;;;;;5.10;2.80;;;;;;;;;;6156728;28;20347;-85
2023/12/13 04:27:19;;;;;;;10.10;2.65;;;;;;;;;;6144406;28;20038;-85
2023/12/13 04:30:21;;;;;;;4.32;2.33;;;;;;;;;;6165774;28;20053;-85
2023/12/13 04:33:23;;;;;;;4.10;2.40;;;;;;;;;;6154516;28;20042;-84
2023/12/13 04:36:25;;;;;;;4.10;1.77;;;;;;;;;;6196254;28;20030;-85
2023/12/13 04:39:27;;;;;;;5.93;1.98;;;;;;;;;;6200102;28;20049;-85
2023/12/13 04:42:28;;;;;;;4.57;2.00;;;;;;;;;;6153597;28;20058;-85
2023/12/13 04:45:30;;;;;;;4.88;2.13;;;;;;;;;;6154733;28;20512;-85
2023/12/13 04:48:32;;;;;;;6.18;2.25;;;;;;;;;;6157757;28;20504;-85
2023/12/13 04:51:34;;;;;;;6.25;2.70;;;;;;;;;;6166292;28;20125;-86
2023/12/13 04:54:37;;;;;;;4.95;2.53;;;;;;;;;;6163434;28;20171;-85
2023/12/13 04:57:39;;;;;;;5.23;2.93;;;;;;;;;;6163312;28;20046;-86
2023/12/13 05:00:40;;;;;;;6.63;2.80;;;;;;;;;;6179850;28;20185;-85
2023/12/13 05:03:42;;;;;;;4.18;2.10;;;;;;;;;;6186138;28;20045;-85
2023/12/13 05:06:47;;;;;;;5.75;1.70;;;;;;;;;;6206184;28;20527;-85
2023/12/13 05:09:48;;;;;;;5.80;2.50;;;;;;;;;;6192209;28;20046;-85
2023/12/13 05:12:50;;;;;;;8.30;3.45;;;;;;;;;;6150243;28;20169;-86
2023/12/13 05:15:52;;;;;;;6.28;3.42;;;;;;;;;;6147299;28;20073;-85
2023/12/13 05:18:54;;;;;;;7.57;2.90;;;;;;;;;;6162373;28;20050;-85
2023/12/13 05:21:59;;;;;;;5.00;2.40;;;;;;;;;;6182618;28;20100;-85
2023/12/13 05:25:01;;;;;;;4.18;2.03;;;;;;;;;;6148349;28;20049;-85
2023/12/13 05:28:03;;;;;;;3.78;1.90;;;;;;;;;;6181171;28;20744;-85
2023/12/13 05:31:05;;;;;;;5.35;2.38;;;;;;;;;;6161746;28;20046;-85
2023/12/13 05:34:07;;;;;;;6.75;2.58;;;;;;;;;;6164816;28;20046;-85
2023/12/13 05:37:09;;;;;;;3.80;2.35;;;;;;;;;;6164400;28;20069;-85
2023/12/13 05:40:11;;;;;;;9.32;4.47;;;;;;;;;;6180505;28;20553;-85
2023/12/13 05:43:13;;;;;;;9.43;4.07;;;;;;;;;;6149065;28;20078;-85
2023/12/13 05:46:15;;;;;;;9.98;4.50;;;;;;;;;;6147137;28;20046;-85
2023/12/13 05:49:16;;;;;;;8.40;4.05;;;;;;;;;;6155269;28;20556;-85
2023/12/13 05:52:18;;;;;;;10.63;4.10;;;;;;;;;;6149261;28;20068;-85
2023/12/13 05:55:20;;;;;;;11.18;4.45;;;;;;;;;;6160826;28;20045;-85
2023/12/13 05:58:22;;;;;;;8.95;4.13;;;;;;;;;;6158573;28;20053;-85
2023/12/13 06:01:24;;;;;;;47.90;18.25;;;;;;;;;;6156080;28;20053;-85
2023/12/13 06:04:26;;;;;;;32.50;12.00;;;;;;;;;;6154850;28;20149;-86
2023/12/13 06:07:29;;;;;;;35.75;13.10;;;;;;;;;;6165057;28;20054;-86
2023/12/13 06:10:31;;;;;;;23.42;9.40;;;;;;;;;;6163330;28;20201;-86
2023/12/13 06:13:34;;;;;;;26.73;9.60;;;;;;;;;;6166606;28;20082;-85
2023/12/13 06:16:35;;;;;;;18.85;9.90;;;;;;;;;;6165660;28;20046;-85
2023/12/13 06:19:37;;;;;;;21.30;9.43;;;;;;;;;;6164772;28;20057;-85
2023/12/13 06:22:40;;;;;;;16.45;7.65;;;;;;;;;;6140199;28;20058;-86
2023/12/13 06:25:42;;;;;;;11.43;5.33;;;;;;;;;;6147200;28;20053;-86
2023/12/13 06:28:44;;;;;;;9.77;4.38;;;;;;;;;;6166714;28;20523;-86
2023/12/13 06:31:46;;;;;;;9.45;4.05;;;;;;;;;;6177840;28;20050;-86
2023/12/13 06:34:48;;;;;;;8.98;5.05;;;;;;;;;;6164510;28;20046;-86
2023/12/13 06:37:49;;;;;;;10.38;5.55;;;;;;;;;;6160535;28;20413;-86
2023/12/13 06:40:51;;;;;;;9.63;5.18;;;;;;;;;;6149295;28;20445;-86
2023/12/13 06:43:53;;;;;;;14.13;5.20;;;;;;;;;;6205853;28;20030;-86
2023/12/13 06:46:57;;;;;;;12.98;5.40;;;;;;;;;;6174489;28;20141;-86
2023/12/13 06:49:58;;;;;;;17.05;5.75;;;;;;;;;;6158402;28;20054;-86
2023/12/13 06:53:01;;;;;;;14.50;5.38;;;;;;;;;;6140502;28;20046;-86
2023/12/13 06:56:03;;;;;;;11.50;5.78;;;;;;;;;;6147454;28;20050;-85
2023/12/13 06:59:05;;;;;;;15.15;6.57;;;;;;;;;;6161520;28;20061;-86
2023/12/13 07:02:07;;;;;;;12.63;7.15;;;;;;;;;;6178119;28;20042;-87
2023/12/13 07:05:10;;;;;;;14.23;7.68;;;;;;;;;;6159116;28;20046;-87
2023/12/13 07:08:12;;;;;;;9.15;4.50;;;;;;;;;;6152464;28;20050;-88
2023/12/13 07:11:18;;;;;;;10.57;4.55;;;;;;;;;;6156265;28;20065;-87
2023/12/13 07:14:27;;;;;;;10.32;5.15;;;;;;;;;;6144821;28;20042;-88
2023/12/13 07:17:32;;;;;;;12.20;6.60;;;;;;;;;;6154537;28;20042;-88
2023/12/13 07:20:37;;;;;;;8.93;5.25;;;;;;;;;;6157675;28;20050;-88
2023/12/13 07:23:47;;;;;;;9.32;5.15;;;;;;;;;;6146544;28;20453;-88
2023/12/13 07:26:52;;;;;;;9.05;4.60;;;;;;;;;;6185136;28;20069;-88
2023/12/13 07:29:54;;;;;;;9.82;4.05;;;;;;;;;;6141700;28;20051;-89
2023/12/13 07:32:56;;;;;;;5.82;3.90;;;;;;;;;;6148573;28;20140;-88
2023/12/13 07:36:00;;;;;;;;;;;;;;;;;;6152201;28;20046;-88
2023/12/13 07:39:05;;;;;;;15.30;5.55;;;;;;;;;;6123651;28;19952;-88
2023/12/13 07:42:07;;;;;;;26.08;8.10;;;;;;;;;;6146084;28;20096;-86
2023/12/13 07:45:11;;;;;;;15.60;6.10;;;;;;;;;;6133278;28;20039;-88
2023/12/13 07:48:21;;;;;;;14.88;7.00;;;;;;;;;;6144940;28;20232;-89
2023/12/13 07:51:38;;;;;;;15.05;6.47;;;;;;;;;;6100487;28;20481;-87
2023/12/13 07:54:42;;;;;;;11.07;6.65;;;;;;;;;;6140044;28;20042;-87
2023/12/13 07:57:46;;;;;;;9.75;5.00;;;;;;;;;;6160844;28;20157;-87
2023/12/13 08:00:52;;;;;;;9.55;5.03;;;;;;;;;;6150727;28;20054;-87
2023/12/13 08:03:56;;;;;;;9.63;4.50;;;;;;;;;;6138127;28;20054;-89
2023/12/13 08:07:03;;;;;;;13.48;5.25;;;;;;;;;;6137405;28;20054;-85
2023/12/13 08:10:07;;;;;;;10.85;4.90;;;;;;;;;;6144842;28;20470;-86
2023/12/13 08:13:12;;;;;;;;;;;;;;;;;;6123668;28;20101;-87
2023/12/13 08:16:19;;;;;;;10.57;4.80;;;;;;;;;;6162761;28;19925;-87
2023/12/13 08:19:25;;;;;;;12.35;4.32;;;;;;;;;;6155919;28;20440;-89
2023/12/13 08:22:27;;;;;;;9.27;4.43;;;;;;;;;;6148307;28;20417;-87
2023/12/13 08:25:32;;;;;;;172.85;51.13;;;;;;;;;;6093694;28;20051;-87
2023/12/13 08:28:43;;;;;;;19.15;7.75;;;;;;;;;;6180831;28;20063;-90
2023/12/13 08:31:45;;;;;;;15.85;6.80;;;;;;;;;;6151705;28;20053;-89
2023/12/13 08:34:50;;;;;;;51.55;17.85;;;;;;;;;;6133112;28;20042;-88
2023/12/13 08:37:53;;;;;;;261.45;59.28;;;;;;;;;;6150759;28;20117;-87
2023/12/13 08:40:55;;;;;;;81.90;21.45;;;;;;;;;;6135328;28;20195;-87
2023/12/13 08:43:58;;;;;;;22.90;11.18;;;;;;;;;;6129686;28;20135;-87
2023/12/13 08:47:03;;;;;;;21.42;9.07;;;;;;;;;;6131516;28;20478;-87
2023/12/13 08:50:06;;;;;;;31.33;15.30;;;;;;;;;;6144983;28;20125;-87
2023/12/13 08:53:08;;;;;;;16.17;6.22;;;;;;;;;;6142411;28;20050;-87
2023/12/13 08:56:10;;;;;;;12.18;6.25;;;;;;;;;;6164768;28;20046;-87
2023/12/13 08:59:12;;;;;;;13.50;6.53;;;;;;;;;;6183198;28;20050;-87
2023/12/13 09:02:13;;;;;;;11.07;3.83;;;;;;;;;;6144361;28;20050;-87
2023/12/13 09:05:18;;;;;;;7.72;2.65;;;;;;;;;;6164340;28;20162;-87
2023/12/13 09:08:20;;;;;;;5.63;2.90;;;;;;;;;;6158706;28;20051;-87
2023/12/13 09:11:22;;;;;;;6.50;4.68;;;;;;;;;;6183234;28;20038;-86
2023/12/13 09:14:27;;;;;;;;;;;;;;;;;;6166698;28;20062;-88
2023/12/13 09:17:29;;;;;;;6.30;2.80;;;;;;;;;;6164249;28;19975;-87
2023/12/13 09:20:31;;;;;;;13.35;5.15;;;;;;;;;;6159895;28;20445;-87
2023/12/13 09:23:36;;;;;;;2.60;1.52;;;;;;;;;;6148389;28;20050;-87
2023/12/13 09:26:39;;;;;;;5.53;1.90;;;;;;;;;;6142292;28;20086;-88
2023/12/13 09:29:40;;;;;;;4.78;2.33;;;;;;;;;;6146927;28;20533;-89
2023/12/13 09:32:43;;;;;;;3.40;2.10;;;;;;;;;;6154907;28;20045;-87
2023/12/13 09:35:48;;;;;;;4.95;2.67;;;;;;;;;;6155140;28;20050;-86
2023/12/13 09:38:50;;;;;;;4.22;1.83;;;;;;;;;;6153533;28;20049;-87
2023/12/13 09:42:00;;;;;;;1.80;1.30;;;;;;;;;;6126890;28;20145;-88
2023/12/13 09:45:06;;;;;;;3.15;1.25;;;;;;;;;;6142895;28;20054;-89
2023/12/13 09:48:09;;;;;;;3.65;1.48;;;;;;;;;;6166530;28;20484;-87
2023/12/13 09:51:12;;;;;;;2.70;1.27;;;;;;;;;;6149602;28;20047;-89
2023/12/13 09:54:14;;;;;;;2.33;1.10;;;;;;;;;;6172806;28;20056;-87
2023/12/13 09:57:17;;;;;;;1.50;1.10;;;;;;;;;;6162996;28;20109;-88
2023/12/13 10:00:19;;;;;;;3.45;1.42;;;;;;;;;;6142335;28;20162;-88
2023/12/13 10:03:21;;;;;;;5.07;1.48;;;;;;;;;;6159083;28;20046;-87
2023/12/13 10:06:23;;;;;;;2.15;1.23;;;;;;;;;;6156587;28;20116;-88
2023/12/13 10:09:27;;;;;;;2.88;1.58;;;;;;;;;;6153482;28;20126;-87
2023/12/13 10:12:29;;;;;;;5.57;4.00;;;;;;;;;;6180758;28;20104;-86
2023/12/13 10:15:31;;;;;;;3.50;2.40;;;;;;;;;;6182354;28;20050;-88
2023/12/13 10:18:34;;;;;;;3.75;2.10;;;;;;;;;;6182402;28;20046;-88
2023/12/13 10:21:37;;;;;;;3.17;2.00;;;;;;;;;;6186621;28;20034;-88
2023/12/13 10:24:41;;;;;;;3.67;1.45;;;;;;;;;;6159312;28;20046;-87
2023/12/13 10:27:43;;;;;;;2.40;1.42;;;;;;;;;;6155547;28;20061;-87
2023/12/13 10:30:49;;;;;;;2.83;1.45;;;;;;;;;;6146026;28;20394;-87
2023/12/13 10:34:01;;;;;;;3.67;2.03;;;;;;;;;;6142576;28;20068;-89
2023/12/13 10:37:06;;;;;;;5.00;3.00;;;;;;;;;;6140062;28;20502;-87
2023/12/13 10:40:20;;;;;;;2.85;1.50;;;;;;;;;;6145777;28;20053;-88
2023/12/13 10:43:25;;;;;;;2.97;1.15;;;;;;;;;;6176506;28;20050;-88
2023/12/13 10:46:33;;;;;;;2.42;1.30;;;;;;;;;;6167785;28;20045;-88
2023/12/13 10:49:39;;;;;;;3.20;1.63;;;;;;;;;;6152218;28;20073;-88
2023/12/13 10:52:42;;;;;;;2.13;1.20;;;;;;;;;;6162876;28;20046;-88
2023/12/13 10:55:45;;;;;;;1.83;1.10;;;;;;;;;;6136628;28;20046;-87
2023/12/13 10:58:51;;;;;;;1.00;0.75;;;;;;;;;;6152071;28;20053;-88
2023/12/13 11:01:54;;;;;;;1.92;0.70;;;;;;;;;;6158387;28;20061;-88
2023/12/13 11:04:59;;;;;;;;;;;;;;;;;;6173558;28;20050;-88
2023/12/13 11:08:19;;;;;;;1.60;0.60;;;;;;;;;;6147762;28;20204;-88
2023/12/13 11:11:34;;;;;;;1.20;1.10;;;;;;;;;;6155531;28;20647;-89
2023/12/13 11:15:12;;;;;;;2.10;0.80;;;;;;;;;;6162825;28;20523;-88
2023/12/13 11:18:30;;;;;;;0.88;0.60;;;;;;;;;;6153089;28;20129;-88
2023/12/13 11:21:50;;;;;;;2.05;1.05;;;;;;;;;;6172886;28;20085;-86
2023/12/13 11:25:04;;;;;;;1.88;0.80;;;;;;;;;;6151187;28;20069;-87
2023/12/13 11:28:31;;;;;;;2.03;0.75;;;;;;;;;;6151623;28;20054;-87
2023/12/13 11:31:33;;;;;;;1.08;0.50;;;;;;;;;;6165412;28;20051;-87
2023/12/13 11:34:48;;;;;;;0.80;0.52;;;;;;;;;;6166726;28;20307;-86
2023/12/13 11:37:59;;;;;;;0.93;0.50;;;;;;;;;;6162366;28;20054;-86
2023/12/13 11:41:01;;;;;;;2.55;0.50;;;;;;;;;;6171013;28;20042;-86
2023/12/13 11:44:05;;;;;;;1.92;1.15;;;;;;;;;;6147921;28;20139;-88
2023/12/13 11:47:12;;;;;;;2.17;0.55;;;;;;;;;;6146058;28;20153;-87
2023/12/13 11:50:16;;;;;;;1.13;0.30;;;;;;;;;;6143463;28;20121;-89
2023/12/13 11:53:18;;;;;;;0.35;0.22;;;;;;;;;;6160750;28;20046;-88
2023/12/13 11:56:21;;;;;;;1.25;0.40;;;;;;;;;;6149876;28;20057;-87
2023/12/13 11:59:31;;;;;;;0.63;0.50;;;;;;;;;;6146563;28;20457;-87
2023/12/13 12:02:33;;;;;;;1.80;0.60;;;;;;;;;;6148635;28;20050;-87
2023/12/13 12:05:59;;;;;;;4.63;1.08;;;;;;;;;;6128378;28;20031;-87
2023/12/13 12:09:06;;;;;;;3.60;1.02;;;;;;;;;;6078299;28;20051;-87
2023/12/13 12:12:18;;;;;;;1.25;0.80;;;;;;;;;;6146564;28;20042;-87
2023/12/13 12:15:23;;;;;;;2.10;1.10;;;;;;;;;;6143274;28;20054;-88
2023/12/13 12:18:28;;;;;;;0.68;0.60;;;;;;;;;;6139520;28;20057;-87
2023/12/13 12:21:33;;;;;;;2.08;0.85;;;;;;;;;;6144325;28;20077;-88
2023/12/13 12:24:38;;;;;;;3.75;1.45;;;;;;;;;;6151159;28;20038;-87
2023/12/13 12:27:48;;;;;;;3.65;1.30;;;;;;;;;;6143949;28;20262;-87
2023/12/13 12:30:52;;;;;;;1.83;1.20;;;;;;;;;;6153518;28;20046;-87
2023/12/13 12:33:58;;;;;;;1.67;0.50;;;;;;;;;;6156243;28;20737;-86
2023/12/13 12:37:01;;;;;;;0.95;0.55;;;;;;;;;;6148741;28;20054;-88
2023/12/13 12:40:04;;;;;;;4.15;1.13;;;;;;;;;;6188251;28;20050;-87
2023/12/13 12:43:06;;;;;;;2.03;0.77;;;;;;;;;;6179731;28;20501;-87
2023/12/13 12:46:08;;;;;;;4.57;0.80;;;;;;;;;;6148193;28;20125;-87
2023/12/13 12:49:10;;;;;;;1.60;0.52;;;;;;;;;;6148968;28;20050;-86
2023/12/13 12:52:16;;;;;;;1.67;0.77;;;;;;;;;;6133639;28;20053;-89
2023/12/13 12:55:18;;;;;;;1.33;0.50;;;;;;;;;;6152129;28;20039;-87
2023/12/13 12:58:19;;;;;;;1.75;0.32;;;;;;;;;;6148525;28;20073;-86
2023/12/13 13:01:21;;;;;;;0.77;0.40;;;;;;;;;;6163274;28;20618;-87
2023/12/13 13:04:25;;;;;;;7.00;1.88;;;;;;;;;;6185165;28;20050;-89
2023/12/13 13:07:27;;;;;;;5.60;2.35;;;;;;;;;;6177175;28;20046;-90
2023/12/13 13:10:29;;;;;;;6.75;2.42;;;;;;;;;;6214666;28;20250;-87
2023/12/13 13:13:31;;;;;;;1.48;0.90;;;;;;;;;;6162423;28;20049;-89
2023/12/13 13:16:36;;;;;;;2.15;1.00;;;;;;;;;;6172536;28;20501;-87
2023/12/13 13:19:39;;;;;;;5.35;1.92;;;;;;;;;;6170511;28;20074;-87
2023/12/13 13:22:42;;;;;;;7.20;3.30;;;;;;;;;;6168363;28;20049;-89
2023/12/13 13:25:49;;;;;;;4.30;1.98;;;;;;;;;;6153358;28;20122;-89
2023/12/13 13:28:53;;;;;;;1.70;1.00;;;;;;;;;;6157940;28;20059;-87
2023/12/13 13:31:55;;;;;;;;;;;;;;;;;;6170604;28;20493;-86
2023/12/13 13:34:59;;;;;;;1.65;1.40;;;;;;;;;;6168320;28;19965;-89
2023/12/13 13:38:01;;;;;;;;;;;;;;;;;;6146233;28;20059;-86
2023/12/13 13:41:03;;;;;;;1.58;1.00;;;;;;;;;;6170037;28;19922;-87
2023/12/13 13:44:05;;;;;;;3.15;1.50;;;;;;;;;;6172380;28;20050;-86
2023/12/13 13:47:08;;;;;;;4.25;1.45;;;;;;;;;;6186453;28;20066;-86
2023/12/13 13:50:11;;;;;;;;;;;;;;;;;;6167205;28;20046;-87
2023/12/13 13:53:13;;;;;;;2.70;1.00;;;;;;;;;;6180544;28;19932;-88
2023/12/13 13:56:15;;;;;;;12.55;4.40;;;;;;;;;;6153436;28;20394;-86
2023/12/13 13:59:22;;;;;;;6.70;2.42;;;;;;;;;;6143777;28;20162;-86
2023/12/13 14:02:31;;;;;;;11.10;3.70;;;;;;;;;;6160207;28;20129;-85
2023/12/13 14:05:36;;;;;;;13.50;5.22;;;;;;;;;;6170912;28;20193;-88
2023/12/13 14:08:39;;;;;;;4.60;2.47;;;;;;;;;;6167226;28;20053;-86
2023/12/13 14:11:41;;;;;;;3.55;1.60;;;;;;;;;;6156344;28;20061;-87
2023/12/13 14:14:43;;;;;;;10.98;3.97;;;;;;;;;;6160146;28;20081;-86
2023/12/13 14:17:45;;;;;;;33.45;9.52;;;;;;;;;;6171500;28;20046;-87
2023/12/13 14:20:50;;;;;;;11.25;4.60;;;;;;;;;;6165390;28;20124;-87
2023/12/13 14:23:55;;;;;;;6.28;3.10;;;;;;;;;;6169896;28;20193;-88
2023/12/13 14:26:57;;;;;;;10.40;3.10;;;;;;;;;;6149082;28;20532;-89
2023/12/13 14:29:59;;;;;;;3.95;2.22;;;;;;;;;;6158913;28;20084;-88
2023/12/13 14:33:01;;;;;;;3.13;2.38;;;;;;;;;;6197914;28;20066;-89
2023/12/13 14:36:05;;;;;;;6.15;2.60;;;;;;;;;;6170500;28;20105;-87
2023/12/13 14:39:07;;;;;;;4.53;1.80;;;;;;;;;;6139967;28;20050;-87
2023/12/13 14:42:11;;;;;;;3.42;1.90;;;;;;;;;;6137011;28;20054;-88
2023/12/13 14:45:13;;;;;;;3.17;2.30;;;;;;;;;;6131243;28;20057;-87
2023/12/13 14:48:16;;;;;;;2.35;1.63;;;;;;;;;;6125678;28;20042;-87
2023/12/13 14:51:18;;;;;;;3.88;1.90;;;;;;;;;;6139914;28;20054;-88
2023/12/13 14:54:22;;;;;;;;;;;;;;;;;;6144448;28;20113;-88
2023/12/13 14:57:25;;;;;;;16.10;5.88;;;;;;;;;;6161146;28;20114;-87
2023/12/13 15:00:28;;;;;;;10.97;6.60;;;;;;;;;;6148586;28;20049;-86
2023/12/13 15:03:30;;;;;;;37.92;15.80;;;;;;;;;;6152984;28;20053;-87
2023/12/13 15:06:33;;;;;;;15.30;9.63;;;;;;;;;;6172971;28;20050;-87
2023/12/13 15:09:35;;;;;;;3.47;1.73;;;;;;;;;;6138916;28;20134;-86
2023/12/13 15:12:37;;;;;;;4.80;3.45;;;;;;;;;;6176789;28;20405;-87
2023/12/13 15:15:39;;;;;;;4.88;2.63;;;;;;;;;;6156675;28;20050;-87
2023/12/13 15:18:42;;;;;;;3.97;2.28;;;;;;;;;;6156684;28;20046;-86
2023/12/13 15:21:46;;;;;;;4.32;2.70;;;;;;;;;;6169453;28;20464;-87
2023/12/13 15:24:48;;;;;;;7.43;4.53;;;;;;;;;;6153796;28;20481;-87
2023/12/13 15:27:52;;;;;;;6.88;3.65;;;;;;;;;;6172721;28;20541;-88
2023/12/13 15:30:54;;;;;;;12.23;5.47;;;;;;;;;;6169675;28;20547;-89
2023/12/13 15:33:56;;;;;;;12.55;6.45;;;;;;;;;;6152326;28;20112;-86
2023/12/13 15:36:58;;;;;;;19.88;9.27;;;;;;;;;;6168010;28;20051;-87
2023/12/13 15:40:00;;;;;;;36.72;17.40;;;;;;;;;;6169544;28;20046;-87
2023/12/13 15:43:04;;;;;;;40.42;17.75;;;;;;;;;;6181496;28;20054;-89
2023/12/13 15:46:06;;;;;;;77.32;27.10;;;;;;;;;;6175595;28;20061;-87
2023/12/13 15:49:10;;;;;;;30.52;13.30;;;;;;;;;;6204710;28;20102;-90
2023/12/13 15:52:13;;;;;;;12.52;7.53;;;;;;;;;;6177677;28;20058;-91
2023/12/13 15:55:16;;;;;;;;;;;;;;;;;;6158830;28;20050;-87
2023/12/13 15:58:18;;;;;;;26.10;12.20;;;;;;;;;;6176836;28;19925;-89
2023/12/13 16:01:20;;;;;;;20.33;9.43;;;;;;;;;;6169524;28;20038;-88
2023/12/13 16:04:22;;;;;;;16.98;8.05;;;;;;;;;;6163150;28;20078;-89
2023/12/13 16:07:24;;;;;;;19.67;9.05;;;;;;;;;;6197941;28;20046;-90
2023/12/13 16:10:26;;;;;;;20.70;10.38;;;;;;;;;;6203634;28;20050;-87
2023/12/13 16:13:28;;;;;;;16.03;9.27;;;;;;;;;;6148182;28;20070;-88
2023/12/13 16:16:33;;;;;;;22.00;9.65;;;;;;;;;;6169905;28;20136;-87
2023/12/13 16:19:35;;;;;;;15.18;6.80;;;;;;;;;;6138816;28;20047;-86
2023/12/13 16:22:43;;;;;;;12.48;6.00;;;;;;;;;;6150595;28;20046;-87
2023/12/13 16:26:00;;;;;;;35.03;14.70;;;;;;;;;;6148162;28;20042;-86
2023/12/13 16:29:10;;;;;;;35.58;14.07;;;;;;;;;;6140745;28;20045;-87
2023/12/13 16:32:28;;;;;;;39.70;15.85;;;;;;;;;;6175860;28;20054;-87
2023/12/13 16:35:30;;;;;;;34.83;15.18;;;;;;;;;;6158280;28;20053;-87
2023/12/13 16:38:33;;;;;;;46.40;17.13;;;;;;;;;;6162706;28;20092;-88
2023/12/13 16:41:48;;;;;;;45.60;18.20;;;;;;;;;;6157195;28;20054;-88
2023/12/13 16:44:58;;;;;;;83.45;38.85;;;;;;;;;;6120168;28;20058;-87
2023/12/13 16:48:10;;;;;;;26.77;14.52;;;;;;;;;;6146427;28;20065;-89
2023/12/13 16:51:38;;;;;;;19.77;8.60;;;;;;;;;;6167474;28;20042;-86
2023/12/13 16:54:41;;;;;;;18.88;7.85;;;;;;;;;;6162550;28;20531;-86
2023/12/13 16:57:46;;;;;;;21.52;8.45;;;;;;;;;;6147682;28;20409;-88
2023/12/13 17:00:48;;;;;;;24.42;8.50;;;;;;;;;;6146854;28;20050;-86
2023/12/13 17:03:53;;;;;;;44.95;11.68;;;;;;;;;;6167297;28;20042;-87
2023/12/13 17:06:55;;;;;;;24.30;10.18;;;;;;;;;;6162843;28;20057;-87
2023/12/13 17:09:57;;;;;;;20.23;7.65;;;;;;;;;;6164757;28;20050;-85
2023/12/13 17:12:59;;;;;;;29.35;10.85;;;;;;;;;;6147653;28;20050;-86
2023/12/13 17:16:01;;;;;;;35.63;8.48;;;;;;;;;;6160304;28;20042;-86
2023/12/13 17:19:05;;;;;;;24.23;6.68;;;;;;;;;;6162835;28;20081;-84
2023/12/13 17:22:07;;;;;;;15.45;5.63;;;;;;;;;;6158344;28;20109;-87
2023/12/13 17:25:14;;;;;;;28.45;10.95;;;;;;;;;;6167446;28;20045;-85
2023/12/13 17:28:18;;;;;;;29.58;10.75;;;;;;;;;;6143998;28;20409;-88
2023/12/13 17:31:22;;;;;;;33.72;12.05;;;;;;;;;;6150585;28;20097;-87
2023/12/13 17:34:25;;;;;;;26.58;12.13;;;;;;;;;;6168192;28;20125;-86
2023/12/13 17:37:27;;;;;;;25.48;10.45;;;;;;;;;;6166389;28;20475;-83
2023/12/13 17:40:29;;;;;;;22.73;8.35;;;;;;;;;;6192701;28;20403;-86
2023/12/13 17:43:31;;;;;;;23.73;6.75;;;;;;;;;;6164738;28;20045;-88
2023/12/13 17:46:37;;;;;;;19.58;7.32;;;;;;;;;;6144049;28;20093;-86
2023/12/13 17:49:39;;;;;;;19.23;6.32;;;;;;;;;;6173369;28;20050;-86
2023/12/13 17:52:41;;;;;;;22.75;8.25;;;;;;;;;;6147062;28;20053;-88
2023/12/13 17:55:53;;;;;;;29.23;10.65;;;;;;;;;;6173423;28;20039;-87
2023/12/13 17:58:56;;;;;;;30.55;10.30;;;;;;;;;;6158148;28;20053;-86
2023/12/13 18:02:06;;;;;;;35.95;8.30;;;;;;;;;;6148863;28;20175;-86
2023/12/13 18:05:09;;;;;;;41.65;14.23;;;;;;;;;;6153312;28;20173;-86
2023/12/13 18:08:11;;;;;;;37.42;11.45;;;;;;;;;;6136402;28;20053;-87
2023/12/13 18:11:14;;;;;;;30.58;10.82;;;;;;;;;;6150522;28;20050;-87
2023/12/13 18:14:17;;;;;;;25.95;9.48;;;;;;;;;;6147650;28;20050;-86
2023/12/13 18:17:19;;;;;;;49.53;11.95;;;;;;;;;;6174654;28;20095;-86
2023/12/13 18:20:23;;;;;;;43.80;11.68;;;;;;;;;;6142889;28;20053;-87